createdAt,value
2018-08-24T00:01:44.528Z,86.51
2018-08-24T00:04:13.544Z,86.51
2018-08-24T00:06:42.615Z,86.05
2018-08-24T00:09:13.931Z,85.94
2018-08-24T00:11:44.576Z,84.42
2018-08-24T00:14:13.580Z,85.04
2018-08-24T00:16:42.851Z,86.39
2018-08-24T00:19:13.179Z,87.04
2018-08-24T00:21:44.190Z,87.35
2018-08-24T00:24:13.961Z,87.60
2018-08-24T00:26:42.983Z,85.32
2018-08-24T00:29:12.274Z,85.26
2018-08-24T00:31:42.474Z,87.14
2018-08-24T00:34:11.474Z,87.03
2018-08-24T00:36:40.503Z,87.31
2018-08-24T00:39:09.751Z,87.18
2018-08-24T00:41:40.247Z,86.75
2018-08-24T00:44:09.275Z,86.01
2018-08-24T00:46:38.307Z,86.65
2018-08-24T00:49:08.122Z,86.57
2018-08-24T00:51:37.166Z,86.18
2018-08-24T00:54:06.172Z,86.34
2018-08-24T00:56:35.236Z,86.61
2018-08-24T00:59:04.255Z,86.95
2018-08-24T01:01:33.248Z,87.04
2018-08-24T01:04:02.267Z,87.13
2018-08-24T01:06:31.257Z,87.43
2018-08-24T01:09:00.263Z,87.44
2018-08-24T01:11:34.797Z,87.65
2018-08-24T01:14:04.031Z,87.53
2018-08-24T01:17:42.401Z,87.92
2018-08-24T01:20:11.428Z,87.50
2018-08-24T01:22:40.423Z,87.58
2018-08-24T01:25:09.423Z,87.91
2018-08-24T01:27:38.459Z,87.89
2018-08-24T01:30:07.470Z,87.76
2018-08-24T01:32:36.447Z,87.37
2018-08-24T01:35:05.470Z,87.62
2018-08-24T01:37:34.484Z,88.09
2018-08-24T01:40:03.506Z,87.67
2018-08-24T01:42:32.499Z,87.85
2018-08-24T01:45:01.509Z,88.17
2018-08-24T01:47:30.532Z,87.90
2018-08-24T01:49:59.527Z,87.97
2018-08-24T01:52:28.562Z,87.74
2018-08-24T01:54:57.555Z,87.85
2018-08-24T01:57:26.696Z,87.85
2018-08-24T01:59:55.719Z,87.73
2018-08-24T02:02:24.723Z,87.70
2018-08-24T02:04:53.802Z,88.03
2018-08-24T02:07:22.806Z,88.26
2018-08-24T02:09:51.794Z,88.00
2018-08-24T02:12:26.209Z,87.83
2018-08-24T02:14:55.215Z,87.87
2018-08-24T02:17:29.694Z,88.14
2018-08-24T02:20:04.192Z,88.12
2018-08-24T02:22:33.242Z,88.46
2018-08-24T02:25:02.243Z,88.30
2018-08-24T02:27:31.228Z,88.30
2018-08-24T02:30:00.345Z,87.97
2018-08-24T02:32:29.336Z,88.22
2018-08-24T02:34:59.841Z,87.98
2018-08-24T02:37:29.754Z,88.07
2018-08-24T02:39:58.735Z,87.94
2018-08-24T02:42:27.743Z,87.71
2018-08-24T02:44:56.770Z,87.89
2018-08-24T02:47:25.828Z,88.15
2018-08-24T02:49:54.826Z,88.14
2018-08-24T02:52:24.008Z,88.10
2018-08-24T02:54:53.055Z,88.25
2018-08-24T02:57:22.160Z,88.26
2018-08-24T02:59:51.168Z,88.02
2018-08-24T03:02:20.218Z,88.46
2018-08-24T03:04:49.245Z,88.52
2018-08-24T03:07:18.255Z,88.39
2018-08-24T03:09:47.250Z,88.22
2018-08-24T03:12:16.263Z,88.28
2018-08-24T03:14:45.591Z,88.03
2018-08-24T03:17:20.081Z,88.28
2018-08-24T03:19:49.112Z,88.28
2018-08-24T03:22:18.125Z,88.44
2018-08-24T03:24:47.518Z,88.23
2018-08-24T03:27:16.595Z,88.33
2018-08-24T03:29:45.619Z,88.46
2018-08-24T03:32:14.616Z,88.57
2018-08-24T03:34:43.710Z,88.60
2018-08-24T03:37:12.788Z,88.13
2018-08-24T03:39:41.822Z,88.04
2018-08-24T03:42:11.556Z,88.25
2018-08-24T03:44:40.568Z,88.35
2018-08-24T03:47:09.583Z,88.13
2018-08-24T03:49:38.628Z,88.37
2018-08-24T03:52:07.628Z,88.45
2018-08-24T03:54:36.652Z,88.62
2018-08-24T03:57:05.639Z,88.69
2018-08-24T03:59:34.643Z,88.69
2018-08-24T04:02:05.385Z,88.79
2018-08-24T04:04:34.427Z,88.72
2018-08-24T04:07:03.478Z,88.72
2018-08-24T04:09:32.583Z,88.84
2018-08-24T04:12:01.576Z,88.72
2018-08-24T04:14:30.615Z,88.76
2018-08-24T04:18:06.871Z,88.51
2018-08-24T04:20:35.907Z,88.86
2018-08-24T04:25:40.554Z,88.54
2018-08-24T04:28:09.503Z,88.36
2018-08-24T04:30:38.504Z,88.59
2018-08-24T04:33:07.812Z,88.65
2018-08-24T04:35:36.805Z,88.34
2018-08-24T04:38:05.933Z,88.52
2018-08-24T04:40:34.969Z,88.41
2018-08-24T04:43:03.943Z,88.85
2018-08-24T04:45:33.238Z,88.34
2018-08-24T04:48:02.186Z,88.55
2018-08-24T04:50:31.191Z,88.46
2018-08-24T04:53:00.223Z,88.45
2018-08-24T04:55:29.210Z,88.53
2018-08-24T04:57:58.271Z,88.66
2018-08-24T05:00:27.570Z,88.62
2018-08-24T05:02:56.606Z,88.70
2018-08-24T05:05:25.877Z,88.26
2018-08-24T05:07:54.912Z,88.49
2018-08-24T05:10:24.015Z,88.70
2018-08-24T05:12:53.044Z,88.32
2018-08-24T05:15:22.042Z,88.70
2018-08-24T05:17:51.037Z,88.40
2018-08-24T05:20:20.071Z,88.64
2018-08-24T05:22:49.233Z,88.41
2018-08-24T05:25:18.267Z,88.56
2018-08-24T05:27:47.297Z,87.85
2018-08-24T05:30:16.620Z,87.04
2018-08-24T05:32:45.608Z,85.79
2018-08-24T05:35:14.694Z,86.53
2018-08-24T05:37:43.708Z,86.95
2018-08-24T05:40:12.724Z,87.01
2018-08-24T05:42:41.768Z,88.20
2018-08-24T05:45:10.762Z,87.26
2018-08-24T05:47:39.784Z,86.45
2018-08-24T05:50:08.772Z,86.73
2018-08-24T05:52:37.887Z,86.72
2018-08-24T05:55:06.888Z,86.98
2018-08-24T05:57:35.939Z,86.16
2018-08-24T06:00:04.983Z,85.89
2018-08-24T06:02:33.994Z,86.07
2018-08-24T06:05:03.141Z,86.03
2018-08-24T06:07:32.167Z,85.94
2018-08-24T06:10:01.188Z,86.53
2018-08-24T06:12:30.219Z,86.22
2018-08-24T06:14:59.215Z,86.39
2018-08-24T06:17:33.483Z,85.62
2018-08-24T06:20:02.513Z,85.62
2018-08-24T06:22:31.547Z,85.55
2018-08-24T06:25:01.080Z,85.39
2018-08-24T06:27:30.088Z,84.51
2018-08-24T06:29:59.115Z,84.81
2018-08-24T06:32:28.132Z,84.70
2018-08-24T06:34:57.164Z,84.24
2018-08-24T06:37:26.456Z,84.25
2018-08-24T06:39:55.559Z,84.26
2018-08-24T06:42:24.584Z,84.26
2018-08-24T06:44:53.638Z,84.78
2018-08-24T06:47:22.753Z,85.21
2018-08-24T06:49:51.663Z,84.76
2018-08-24T06:52:20.835Z,84.34
2018-08-24T06:54:50.102Z,85.15
2018-08-24T06:57:19.139Z,83.98
2018-08-24T06:59:48.205Z,81.56
2018-08-24T07:02:17.189Z,80.95
2018-08-24T07:04:46.191Z,81.15
2018-08-24T07:07:15.230Z,81.11
2018-08-24T07:09:44.304Z,80.51
2018-08-24T07:12:14.190Z,81.04
2018-08-24T07:14:44.006Z,81.22
2018-08-24T07:17:13.106Z,82.64
2018-08-24T07:19:42.872Z,80.77
2018-08-24T07:22:11.872Z,79.84
2018-08-24T07:24:40.867Z,81.54
2018-08-24T07:27:09.964Z,79.24
2018-08-24T07:29:38.955Z,81.15
2018-08-24T07:32:07.949Z,79.15
2018-08-24T07:34:37.204Z,79.80
2018-08-24T07:37:06.294Z,81.92
2018-08-24T07:39:35.278Z,79.67
2018-08-24T07:42:05.539Z,80.75
2018-08-24T07:44:38.706Z,80.80
2018-08-24T07:47:07.736Z,80.94
2018-08-24T07:49:36.843Z,79.57
2018-08-24T07:52:06.031Z,79.50
2018-08-24T07:54:35.031Z,80.68
2018-08-24T07:57:04.071Z,81.40
2018-08-24T07:59:33.079Z,80.65
2018-08-24T08:02:02.120Z,79.35
2018-08-24T08:04:31.188Z,79.41
2018-08-24T08:07:00.235Z,79.92
2018-08-24T08:09:29.234Z,79.28
2018-08-24T08:12:00.097Z,78.92
2018-08-24T08:14:29.728Z,79.45
2018-08-24T08:17:01.230Z,79.73
2018-08-24T08:19:31.734Z,79.50
2018-08-24T08:22:01.300Z,79.21
2018-08-24T08:24:30.360Z,79.44
2018-08-24T08:26:59.353Z,79.26
2018-08-24T08:29:33.718Z,78.82
2018-08-24T08:32:02.986Z,78.59
2018-08-24T08:34:35.927Z,78.99
2018-08-24T08:37:04.959Z,78.31
2018-08-24T08:39:34.063Z,78.22
2018-08-24T08:42:03.139Z,78.96
2018-08-24T08:44:32.167Z,79.27
2018-08-24T08:47:01.190Z,79.35
2018-08-24T08:49:30.178Z,79.90
2018-08-24T08:51:59.205Z,79.96
2018-08-24T08:54:28.308Z,79.38
2018-08-24T08:56:57.334Z,80.04
2018-08-24T08:59:26.402Z,79.31
2018-08-24T09:01:55.825Z,79.16
2018-08-24T09:04:24.849Z,79.83
2018-08-24T09:06:53.943Z,80.10
2018-08-24T09:09:22.973Z,80.71
2018-08-24T09:11:51.966Z,80.65
2018-08-24T09:14:20.992Z,82.06
2018-08-24T09:16:49.999Z,80.89
2018-08-24T09:19:24.527Z,82.00
2018-08-24T09:21:58.843Z,83.17
2018-08-24T09:24:33.299Z,82.22
2018-08-24T09:27:07.561Z,82.92
2018-08-24T09:29:36.588Z,83.99
2018-08-24T09:32:05.661Z,84.55
2018-08-24T09:34:34.724Z,85.10
2018-08-24T09:37:08.022Z,84.19
2018-08-24T09:39:37.023Z,84.63
2018-08-24T09:42:06.067Z,85.42
2018-08-24T09:44:35.071Z,85.07
2018-08-24T09:47:09.769Z,85.06
2018-08-24T09:49:40.098Z,85.20
2018-08-24T09:52:14.507Z,84.75
2018-08-24T09:54:43.496Z,84.68
2018-08-24T09:57:12.607Z,84.55
2018-08-24T09:59:41.619Z,84.33
2018-08-24T10:02:15.811Z,82.17
2018-08-24T10:04:50.425Z,84.69
2018-08-24T10:07:24.760Z,83.58
2018-08-24T10:09:53.789Z,83.14
2018-08-24T10:12:22.846Z,85.09
2018-08-24T10:14:51.848Z,83.42
2018-08-24T10:17:25.483Z,84.75
2018-08-24T10:19:54.483Z,83.46
2018-08-24T10:22:23.578Z,84.37
2018-08-24T10:24:52.843Z,85.18
2018-08-24T10:27:21.810Z,83.39
2018-08-24T10:29:50.989Z,84.04
2018-08-24T10:32:19.831Z,83.97
2018-08-24T10:34:48.888Z,84.41
2018-08-24T10:37:17.899Z,84.10
2018-08-24T10:39:46.891Z,83.64
2018-08-24T10:42:15.923Z,82.61
2018-08-24T10:44:45.032Z,83.36
2018-08-24T10:47:14.049Z,81.56
2018-08-24T10:49:43.052Z,80.39
2018-08-24T10:52:12.047Z,80.68
2018-08-24T10:54:41.083Z,84.31
2018-08-24T10:57:10.116Z,83.99
2018-08-24T10:59:39.143Z,84.38
2018-08-24T11:02:08.231Z,85.50
2018-08-24T11:04:37.146Z,85.54
2018-08-24T11:07:06.455Z,85.05
2018-08-24T11:09:35.442Z,84.65
2018-08-24T11:12:04.428Z,85.39
2018-08-24T11:14:33.451Z,84.71
2018-08-24T11:17:02.535Z,85.35
2018-08-24T11:19:31.891Z,85.20
2018-08-24T11:22:01.014Z,84.00
2018-08-24T11:24:30.010Z,82.81
2018-08-24T11:26:59.133Z,79.93
2018-08-24T11:29:28.176Z,81.61
2018-08-24T11:31:57.116Z,80.96
2018-08-24T11:34:26.113Z,79.45
2018-08-24T11:36:55.259Z,78.93
2018-08-24T11:39:24.291Z,74.83
2018-08-24T11:41:53.375Z,78.44
2018-08-24T11:44:22.306Z,77.92
2018-08-24T11:46:51.330Z,78.69
2018-08-24T11:49:20.319Z,75.54
2018-08-24T11:51:49.307Z,75.97
2018-08-24T11:54:18.361Z,78.35
2018-08-24T11:56:47.360Z,73.68
2018-08-24T11:59:16.367Z,75.32
2018-08-24T12:01:45.405Z,72.90
2018-08-24T12:04:14.419Z,73.20
2018-08-24T12:06:43.412Z,76.51
2018-08-24T12:09:12.488Z,76.20
2018-08-24T12:11:41.481Z,76.87
2018-08-24T12:14:10.515Z,74.23
2018-08-24T12:16:39.511Z,72.18
2018-08-24T12:19:08.534Z,71.67
2018-08-24T12:21:37.653Z,74.82
2018-08-24T12:24:06.624Z,74.84
2018-08-24T12:26:35.637Z,74.91
2018-08-24T12:29:04.739Z,74.35
2018-08-24T12:31:33.814Z,73.01
2018-08-24T12:34:02.807Z,71.66
2018-08-24T12:36:31.819Z,72.70
2018-08-24T12:39:00.834Z,71.63
2018-08-24T12:41:29.831Z,68.26
2018-08-24T12:43:58.867Z,74.18
2018-08-24T12:46:27.863Z,72.63
2018-08-24T12:48:57.443Z,70.60
2018-08-24T12:51:26.700Z,70.88
2018-08-24T12:53:55.703Z,70.97
2018-08-24T12:56:24.719Z,71.38
2018-08-24T12:58:53.915Z,69.16
2018-08-24T13:01:22.959Z,68.75
2018-08-24T13:03:51.979Z,70.67
2018-08-24T13:06:20.989Z,73.94
2018-08-24T13:08:50.087Z,74.12
2018-08-24T13:11:19.216Z,69.74
2018-08-24T13:13:48.221Z,67.76
2018-08-24T13:16:17.248Z,69.27
2018-08-24T13:18:46.326Z,68.97
2018-08-24T13:21:15.346Z,66.30
2018-08-24T13:23:44.789Z,68.33
2018-08-24T13:26:13.783Z,68.10
2018-08-24T13:28:42.783Z,69.57
2018-08-24T13:31:11.808Z,68.37
2018-08-24T13:33:40.822Z,67.23
2018-08-24T13:36:09.847Z,65.32
2018-08-24T13:38:38.967Z,64.28
2018-08-24T13:41:07.989Z,64.94
2018-08-24T13:43:36.990Z,65.39
2018-08-24T13:46:06.015Z,61.82
2018-08-24T13:48:35.331Z,65.81
2018-08-24T13:51:04.323Z,65.89
2018-08-24T13:53:33.343Z,61.60
2018-08-24T13:56:02.333Z,64.56
2018-08-24T13:58:31.339Z,62.59
2018-08-24T14:01:00.639Z,64.24
2018-08-24T14:03:29.643Z,64.63
2018-08-24T14:05:58.625Z,62.77
2018-08-24T14:08:27.939Z,62.70
2018-08-24T14:10:56.991Z,62.92
2018-08-24T14:13:26.029Z,64.42
2018-08-24T14:15:55.099Z,62.46
2018-08-24T14:18:24.081Z,62.02
2018-08-24T14:20:53.173Z,61.72
2018-08-24T14:23:22.248Z,60.43
2018-08-24T14:25:51.408Z,63.65
2018-08-24T14:28:20.387Z,62.40
2018-08-24T14:30:49.498Z,61.95
2018-08-24T14:33:18.540Z,61.80
2018-08-24T14:35:47.519Z,61.96
2018-08-24T14:38:16.558Z,61.11
2018-08-24T14:40:45.515Z,62.11
2018-08-24T14:43:14.516Z,62.67
2018-08-24T14:45:43.684Z,62.24
2018-08-24T14:48:12.694Z,61.54
2018-08-24T14:50:41.687Z,59.72
2018-08-24T14:53:10.707Z,60.55
2018-08-24T14:55:40.131Z,60.29
2018-08-24T14:58:09.204Z,62.24
2018-08-24T15:00:38.280Z,60.59
2018-08-24T15:03:07.294Z,60.01
2018-08-24T15:05:36.387Z,59.95
2018-08-24T15:08:05.498Z,60.21
2018-08-24T15:10:34.483Z,61.30
2018-08-24T15:13:03.569Z,60.40
2018-08-24T15:15:32.571Z,60.68
2018-08-24T15:18:01.581Z,60.88
2018-08-24T15:20:30.567Z,59.51
2018-08-24T15:23:00.071Z,60.43
2018-08-24T15:25:29.127Z,60.38
2018-08-24T15:27:58.121Z,58.90
2018-08-24T15:30:27.135Z,60.75
2018-08-24T15:32:56.141Z,61.04
2018-08-24T15:35:25.150Z,60.29
2018-08-24T15:37:54.162Z,59.56
2018-08-24T15:40:23.193Z,59.26
2018-08-24T15:42:52.170Z,59.70
2018-08-24T15:45:21.375Z,60.38
2018-08-24T15:47:50.380Z,59.88
2018-08-24T15:50:19.355Z,59.44
2018-08-24T15:52:48.383Z,60.98
2018-08-24T15:55:18.251Z,63.34
2018-08-24T15:57:47.508Z,59.10
2018-08-24T16:00:16.592Z,58.91
2018-08-24T16:02:45.511Z,61.82
2018-08-24T16:05:14.527Z,61.34
2018-08-24T16:07:43.516Z,59.55
2018-08-24T16:10:12.572Z,60.08
2018-08-24T16:12:41.600Z,59.03
2018-08-24T16:15:10.679Z,58.99
2018-08-24T16:17:39.705Z,57.42
2018-08-24T16:20:08.702Z,58.05
2018-08-24T16:22:37.675Z,56.34
2018-08-24T16:25:06.705Z,56.26
2018-08-24T16:27:35.689Z,56.18
2018-08-24T16:30:04.702Z,56.25
2018-08-24T16:32:33.749Z,55.98
2018-08-24T16:35:02.827Z,55.53
2018-08-24T16:37:31.850Z,55.24
2018-08-24T16:40:00.828Z,55.22
2018-08-24T16:42:29.820Z,55.15
2018-08-24T16:44:58.842Z,58.84
2018-08-24T16:47:27.820Z,56.16
2018-08-24T16:49:56.836Z,57.75
2018-08-24T16:52:25.849Z,56.44
2018-08-24T16:54:54.887Z,57.53
2018-08-24T16:57:24.216Z,57.29
2018-08-24T16:59:53.205Z,57.13
2018-08-24T17:02:22.167Z,57.61
2018-08-24T17:04:51.248Z,57.17
2018-08-24T17:07:20.248Z,57.45
2018-08-24T17:09:49.389Z,59.03
2018-08-24T17:12:18.762Z,58.47
2018-08-24T17:14:47.775Z,58.79
2018-08-24T17:17:16.767Z,59.22
2018-08-24T17:19:45.803Z,57.77
2018-08-24T17:22:14.997Z,57.96
2018-08-24T17:24:43.943Z,57.01
2018-08-24T17:27:12.960Z,57.38
2018-08-24T17:29:41.951Z,57.15
2018-08-24T17:32:10.972Z,58.44
2018-08-24T17:34:39.959Z,58.19
2018-08-24T17:37:09.000Z,57.71
2018-08-24T17:39:38.019Z,57.66
2018-08-24T17:42:07.063Z,57.17
2018-08-24T17:44:36.063Z,56.72
2018-08-24T17:47:05.263Z,57.01
2018-08-24T17:49:34.311Z,55.54
2018-08-24T17:52:03.315Z,56.11
2018-08-24T17:54:32.331Z,56.78
2018-08-24T17:57:01.337Z,56.38
2018-08-24T17:59:30.365Z,56.38
2018-08-24T18:01:59.452Z,57.15
2018-08-24T18:04:28.444Z,57.79
2018-08-24T18:06:57.795Z,57.53
2018-08-24T18:09:26.814Z,58.41
2018-08-24T18:11:55.968Z,57.81
2018-08-24T18:14:25.263Z,58.52
2018-08-24T18:16:54.284Z,58.33
2018-08-24T18:19:23.275Z,58.57
2018-08-24T18:21:52.305Z,58.92
2018-08-24T18:24:21.478Z,59.07
2018-08-24T18:26:50.436Z,59.07
2018-08-24T18:29:19.479Z,59.80
2018-08-24T18:31:48.467Z,60.10
2018-08-24T18:34:17.519Z,59.32
2018-08-24T18:36:46.570Z,60.17
2018-08-24T18:39:15.544Z,59.54
2018-08-24T18:41:44.564Z,59.35
2018-08-24T18:44:13.553Z,59.31
2018-08-24T18:46:42.568Z,59.00
2018-08-24T18:49:11.583Z,60.15
2018-08-24T18:51:40.660Z,59.64
2018-08-24T18:54:09.635Z,60.02
2018-08-24T18:56:38.752Z,60.44
2018-08-24T18:59:08.039Z,60.60
2018-08-24T19:01:37.035Z,59.72
2018-08-24T19:04:06.052Z,60.18
2018-08-24T19:06:35.040Z,59.56
2018-08-24T19:09:06.283Z,59.94
2018-08-24T19:11:40.673Z,59.52
2018-08-24T19:14:09.916Z,59.61
2018-08-24T19:16:38.942Z,59.13
2018-08-24T19:19:14.427Z,60.22
2018-08-24T19:21:44.881Z,58.63
2018-08-24T19:24:14.007Z,59.58
2018-08-24T19:26:43.732Z,58.68
2018-08-24T19:29:18.071Z,58.03
2018-08-24T19:31:47.103Z,58.10
2018-08-24T19:34:16.130Z,57.51
2018-08-24T19:36:45.129Z,56.71
2018-08-24T19:39:15.031Z,55.07
2018-08-24T19:41:49.528Z,54.99
2018-08-24T19:44:18.547Z,54.89
2018-08-24T19:46:47.536Z,53.90
2018-08-24T19:49:18.721Z,54.81
2018-08-24T19:51:47.819Z,52.65
2018-08-24T19:54:17.456Z,52.44
2018-08-24T19:56:46.478Z,52.88
2018-08-24T19:59:16.721Z,52.45
2018-08-24T20:01:45.719Z,54.15
2018-08-24T20:04:14.716Z,52.41
2018-08-24T20:06:49.331Z,54.70
2018-08-24T20:09:23.755Z,53.97
2018-08-24T20:11:53.331Z,53.28
2018-08-24T20:14:27.664Z,51.99
2018-08-24T20:17:02.385Z,52.08
2018-08-24T20:19:31.446Z,53.81
2018-08-24T20:22:00.426Z,53.39
2018-08-24T20:24:29.607Z,53.53
2018-08-24T20:26:58.474Z,55.57
2018-08-24T20:29:27.479Z,53.98
2018-08-24T20:31:56.453Z,54.01
2018-08-24T20:34:25.500Z,55.23
2018-08-24T20:36:54.439Z,53.21
2018-08-24T20:39:23.515Z,54.35
2018-08-24T20:41:52.527Z,54.21
2018-08-24T20:44:21.503Z,53.08
2018-08-24T20:46:50.559Z,52.71
2018-08-24T20:49:19.555Z,55.93
2018-08-24T20:51:48.554Z,54.42
2018-08-24T20:54:17.567Z,57.09
2018-08-24T20:56:46.554Z,55.17
2018-08-24T20:59:15.558Z,58.75
2018-08-24T21:01:44.647Z,58.79
2018-08-24T21:04:13.679Z,59.39
2018-08-24T21:06:42.655Z,58.66
2018-08-24T21:09:11.650Z,58.64
2018-08-24T21:11:40.734Z,58.33
2018-08-24T21:14:09.741Z,59.45
2018-08-24T21:16:38.732Z,60.99
2018-08-24T21:19:08.391Z,62.98
2018-08-24T21:21:37.445Z,65.21
2018-08-24T21:24:06.699Z,65.77
2018-08-24T21:26:35.719Z,66.52
2018-08-24T21:29:04.715Z,64.00
2018-08-24T21:31:33.784Z,65.41
2018-08-24T21:34:03.759Z,63.61
2018-08-24T21:36:32.791Z,60.11
2018-08-24T21:39:01.883Z,64.34
2018-08-24T21:41:30.863Z,62.55
2018-08-24T21:43:59.876Z,55.84
2018-08-24T21:46:28.864Z,53.36
2018-08-24T21:48:57.868Z,54.30
2018-08-24T21:51:26.847Z,54.56
2018-08-24T21:53:55.864Z,52.77
2018-08-24T21:56:24.839Z,51.88
2018-08-24T21:58:53.817Z,52.29
2018-08-24T22:01:22.828Z,51.73
2018-08-24T22:03:51.931Z,51.98
2018-08-24T22:06:20.923Z,53.38
2018-08-24T22:08:49.927Z,53.03
2018-08-24T22:11:19.148Z,54.50
2018-08-24T22:13:48.288Z,55.14
2018-08-24T22:16:17.295Z,56.51
2018-08-24T22:18:46.278Z,54.89
2018-08-24T22:21:15.299Z,54.68
2018-08-24T22:23:44.275Z,57.86
2018-08-24T22:26:13.259Z,55.96
2018-08-24T22:28:42.547Z,54.75
2018-08-24T22:31:11.818Z,54.91
2018-08-24T22:33:40.803Z,54.39
2018-08-24T22:36:09.816Z,57.28
2018-08-24T22:38:38.812Z,57.03
2018-08-24T22:41:07.939Z,57.92
2018-08-24T22:43:39.418Z,59.96
2018-08-24T22:46:08.447Z,55.49
2018-08-24T22:48:37.487Z,58.59
2018-08-24T22:51:06.587Z,54.78
2018-08-24T22:53:35.560Z,55.01
2018-08-24T22:56:04.575Z,58.19
2018-08-24T22:58:33.551Z,59.83
2018-08-24T23:01:02.535Z,58.20
2018-08-24T23:03:31.535Z,58.18
2018-08-24T23:06:00.523Z,56.85
2018-08-24T23:08:29.502Z,60.67
2018-08-24T23:10:58.555Z,56.21
2018-08-24T23:13:27.532Z,57.52
2018-08-24T23:15:56.586Z,56.63
2018-08-24T23:18:25.579Z,58.55
2018-08-24T23:20:54.578Z,59.07
2018-08-24T23:23:23.583Z,59.11
2018-08-24T23:25:52.563Z,60.21
2018-08-24T23:28:21.543Z,64.30
2018-08-24T23:30:50.611Z,58.95
2018-08-24T23:33:19.575Z,57.02
2018-08-24T23:35:48.935Z,63.26
2018-08-24T23:38:17.923Z,59.27
2018-08-24T23:40:46.907Z,58.86
2018-08-24T23:43:15.949Z,65.01
2018-08-24T23:45:44.927Z,65.58
2018-08-24T23:48:13.952Z,65.02
2018-08-24T23:50:42.935Z,67.78
2018-08-24T23:53:12.013Z,68.07
2018-08-24T23:55:41.080Z,69.02
2018-08-24T23:58:10.020Z,69.69
